createdAt,value
2022-08-01T00:00:16.482Z,67.68
2022-08-01T00:02:44.353Z,67.84
2022-08-01T00:05:13.048Z,67.61
2022-08-01T00:07:41.030Z,67.60
2022-08-01T00:10:19.586Z,67.71
2022-08-01T00:12:47.995Z,67.76
2022-08-01T00:15:21.591Z,67.56
2022-08-01T00:17:49.485Z,68.21
2022-08-01T00:20:17.464Z,67.98
2022-08-01T00:22:45.340Z,67.74
2022-08-01T00:25:13.381Z,67.49
2022-08-01T00:27:44.431Z,67.84
2022-08-01T00:30:14.801Z,67.81
2022-08-01T00:32:44.859Z,68.25
2022-08-01T00:35:14.342Z,68.30
2022-08-01T00:37:42.546Z,68.52
2022-08-01T00:40:11.190Z,68.73
2022-08-01T00:42:45.292Z,69.18
2022-08-01T00:45:13.656Z,72.92
2022-08-01T00:47:41.750Z,69.57
2022-08-01T00:50:12.164Z,69.29
2022-08-01T00:52:41.663Z,69.42
2022-08-01T00:55:15.165Z,68.89
2022-08-01T00:58:05.408Z,69.08
2022-08-01T01:00:53.082Z,69.29
2022-08-01T01:06:43.279Z,69.44
2022-08-01T01:09:25.706Z,69.27
2022-08-01T01:12:04.090Z,69.12
2022-08-01T01:14:47.152Z,69.45
2022-08-01T01:17:49.581Z,69.41
2022-08-01T01:20:16.148Z,69.42
2022-08-01T01:23:07.709Z,69.62
2022-08-01T01:25:48.666Z,69.18
2022-08-01T01:28:22.643Z,69.26
2022-08-01T01:30:54.458Z,74.58
2022-08-01T01:33:26.166Z,69.69
2022-08-01T01:36:14.870Z,69.69
2022-08-01T01:38:46.361Z,69.82
2022-08-01T01:41:16.256Z,69.91
2022-08-01T01:43:45.804Z,69.39
2022-08-01T01:46:19.123Z,69.81
2022-08-01T01:48:49.747Z,70.13
2022-08-01T01:51:25.943Z,69.65
2022-08-01T01:53:55.436Z,70.16
2022-08-01T01:56:24.994Z,70.02
2022-08-01T01:58:56.895Z,70.55
2022-08-01T02:01:58.323Z,71.04
2022-08-01T02:04:20.296Z,76.41
2022-08-01T02:06:53.835Z,71.71
2022-08-01T02:09:48.550Z,72.88
2022-08-01T02:12:18.343Z,76.86
2022-08-01T02:14:48.884Z,71.63
2022-08-01T02:17:20.614Z,72.00
2022-08-01T02:19:48.989Z,71.30
2022-08-01T02:22:28.013Z,71.37
2022-08-01T02:25:05.253Z,71.64
2022-08-01T02:27:43.900Z,71.15
2022-08-01T02:30:16.265Z,71.32
2022-08-01T02:32:48.757Z,71.23
2022-08-01T02:35:23.768Z,71.20
2022-08-01T02:37:52.199Z,71.25
2022-08-01T02:40:20.747Z,70.52
2022-08-01T02:42:52.386Z,70.54
2022-08-01T02:45:22.643Z,70.29
2022-08-01T02:47:56.284Z,70.46
2022-08-01T02:50:35.002Z,70.75
2022-08-01T02:53:05.948Z,70.13
2022-08-01T02:55:34.998Z,70.12
2022-08-01T02:58:04.692Z,70.48
2022-08-01T03:00:35.999Z,70.35
2022-08-01T03:03:12.251Z,70.70
2022-08-01T03:05:41.803Z,70.75
2022-08-01T03:08:14.617Z,70.28
2022-08-01T03:10:46.525Z,70.47
2022-08-01T03:13:17.239Z,70.53
2022-08-01T03:15:55.186Z,70.52
2022-08-01T03:18:27.978Z,70.90
2022-08-01T03:21:01.023Z,70.85
2022-08-01T03:23:38.245Z,70.54
2022-08-01T03:26:08.126Z,70.37
2022-08-01T03:28:42.355Z,71.03
2022-08-01T03:31:12.693Z,70.74
2022-08-01T03:33:42.495Z,70.29
2022-08-01T03:36:14.935Z,70.74
2022-08-01T03:38:46.070Z,71.37
2022-08-01T03:41:17.868Z,71.44
2022-08-01T03:44:06.865Z,71.96
2022-08-01T03:46:41.273Z,71.41
2022-08-01T03:49:16.445Z,71.71
2022-08-01T03:51:49.055Z,71.40
2022-08-01T03:54:19.705Z,71.93
2022-08-01T03:56:59.688Z,72.56
2022-08-01T03:59:32.108Z,72.78
2022-08-01T04:02:00.858Z,72.60
2022-08-01T04:04:33.318Z,72.68
2022-08-01T04:07:05.188Z,72.71
2022-08-01T04:09:35.963Z,72.54
2022-08-01T04:12:12.275Z,72.12
2022-08-01T04:14:40.637Z,71.94
2022-08-01T04:17:11.117Z,71.78
2022-08-01T04:19:43.189Z,71.58
2022-08-01T04:22:37.767Z,71.36
2022-08-01T04:25:21.524Z,70.85
2022-08-01T04:27:52.764Z,70.87
2022-08-01T04:30:24.655Z,70.60
2022-08-01T04:32:57.172Z,70.61
2022-08-01T04:36:01.757Z,70.79
2022-08-01T04:38:24.060Z,70.73
2022-08-01T04:40:56.850Z,71.50
2022-08-01T04:43:25.023Z,71.45
2022-08-01T04:46:00.687Z,71.95
2022-08-01T04:48:31.710Z,71.62
2022-08-01T04:51:05.895Z,71.10
2022-08-01T04:53:34.390Z,75.01
2022-08-01T04:56:02.322Z,71.77
2022-08-01T04:58:30.325Z,71.06
2022-08-01T05:01:20.017Z,71.07
2022-08-01T05:03:49.856Z,70.41
2022-08-01T05:06:32.377Z,70.42
2022-08-01T05:09:03.891Z,69.90
2022-08-01T05:11:31.925Z,69.76
2022-08-01T05:14:16.199Z,69.81
2022-08-01T05:16:46.849Z,72.61
2022-08-01T05:19:14.770Z,70.01
2022-08-01T05:21:46.967Z,69.68
2022-08-01T05:24:17.363Z,70.25
2022-08-01T05:26:45.568Z,70.37
2022-08-01T05:29:16.030Z,70.31
2022-08-01T05:31:44.059Z,70.12
2022-08-01T05:34:15.547Z,69.99
2022-08-01T05:36:43.948Z,69.84
2022-08-01T05:39:13.536Z,70.24
2022-08-01T05:41:45.266Z,70.26
2022-08-01T05:44:26.838Z,70.61
2022-08-01T05:46:57.448Z,70.65
2022-08-01T05:49:25.602Z,70.65
2022-08-01T05:51:53.660Z,70.63
2022-08-01T05:54:22.932Z,70.71
2022-08-01T05:57:03.196Z,70.57
2022-08-01T05:59:34.601Z,70.39
2022-08-01T06:02:03.233Z,69.94
2022-08-01T06:04:37.652Z,69.77
2022-08-01T06:07:12.939Z,72.75
2022-08-01T06:09:47.976Z,70.22
2022-08-01T06:12:15.914Z,70.00
2022-08-01T06:15:03.925Z,69.33
2022-08-01T06:17:34.373Z,69.11
2022-08-01T06:20:04.792Z,68.88
2022-08-01T06:22:32.818Z,69.33
2022-08-01T06:25:05.475Z,69.70
2022-08-01T06:27:38.553Z,69.99
2022-08-01T06:30:08.583Z,70.36
2022-08-01T06:32:36.450Z,71.26
2022-08-01T06:35:04.730Z,71.82
2022-08-01T06:37:33.918Z,72.11
2022-08-01T06:40:07.576Z,72.32
2022-08-01T06:42:46.747Z,72.25
2022-08-01T06:45:18.084Z,71.68
2022-08-01T06:47:50.506Z,70.87
2022-08-01T06:50:21.658Z,70.05
2022-08-01T06:52:51.256Z,70.26
2022-08-01T06:55:20.825Z,69.52
2022-08-01T06:57:50.282Z,68.92
2022-08-01T07:00:23.492Z,68.90
2022-08-01T07:02:52.000Z,68.53
2022-08-01T07:05:20.228Z,69.09
2022-08-01T07:07:49.010Z,68.86
2022-08-01T07:10:27.378Z,68.67
2022-08-01T07:12:55.998Z,68.54
2022-08-01T07:15:27.574Z,67.94
2022-08-01T07:18:00.954Z,68.04
2022-08-01T07:20:42.044Z,68.06
2022-08-01T07:23:22.726Z,66.68
2022-08-01T07:26:01.126Z,66.11
2022-08-01T07:28:30.255Z,66.38
2022-08-01T07:31:07.098Z,67.50
2022-08-01T07:33:48.762Z,68.12
2022-08-01T07:36:20.429Z,68.41
2022-08-01T07:38:49.580Z,68.40
2022-08-01T07:41:19.120Z,67.70
2022-08-01T07:43:56.630Z,67.47
2022-08-01T07:46:26.622Z,68.07
2022-08-01T07:49:02.232Z,69.01
2022-08-01T07:51:33.253Z,69.89
2022-08-01T07:54:05.139Z,70.38
2022-08-01T07:56:45.984Z,71.10
2022-08-01T07:59:16.025Z,70.93
2022-08-01T08:02:09.224Z,71.29
2022-08-01T08:04:37.537Z,70.67
2022-08-01T08:07:19.137Z,70.07
2022-08-01T08:10:03.276Z,69.81
2022-08-01T08:12:44.674Z,69.89
2022-08-01T08:15:13.128Z,69.75
2022-08-01T08:17:41.203Z,70.33
2022-08-01T08:20:11.831Z,70.20
2022-08-01T08:22:40.045Z,70.33
2022-08-01T08:25:16.822Z,69.54
2022-08-01T08:27:48.325Z,69.73
2022-08-01T08:30:27.735Z,68.85
2022-08-01T08:32:58.058Z,68.05
2022-08-01T08:35:40.251Z,67.66
2022-08-01T08:38:15.605Z,67.09
2022-08-01T08:40:43.926Z,67.73
2022-08-01T08:43:19.801Z,67.92
2022-08-01T08:45:59.439Z,67.49
2022-08-01T08:48:36.984Z,66.99
2022-08-01T08:51:09.668Z,66.73
2022-08-01T08:53:38.176Z,67.13
2022-08-01T08:56:13.633Z,67.05
2022-08-01T08:58:45.808Z,67.20
2022-08-01T09:01:14.979Z,66.42
2022-08-01T09:03:46.676Z,66.31
2022-08-01T09:06:15.184Z,66.25
2022-08-01T09:08:43.258Z,66.80
2022-08-01T09:11:13.873Z,66.69
2022-08-01T09:14:10.862Z,66.19
2022-08-01T09:16:47.996Z,66.01
2022-08-01T09:19:39.036Z,66.87
2022-08-01T09:22:14.522Z,66.72
2022-08-01T09:25:15.517Z,67.12
2022-08-01T09:27:46.208Z,67.26
2022-08-01T09:30:23.972Z,67.41
2022-08-01T09:33:01.774Z,66.86
2022-08-01T09:35:43.714Z,66.25
2022-08-01T09:38:24.985Z,65.75
2022-08-01T09:40:55.753Z,65.83
2022-08-01T09:43:27.354Z,65.46
2022-08-01T09:46:16.422Z,65.56
2022-08-01T09:49:10.691Z,65.16
2022-08-01T09:51:58.918Z,64.80
2022-08-01T09:54:35.768Z,64.68
2022-08-01T09:57:22.660Z,63.42
2022-08-01T09:59:59.892Z,63.86
2022-08-01T10:02:40.998Z,63.83
2022-08-01T10:05:21.118Z,64.27
2022-08-01T10:08:00.120Z,64.33
2022-08-01T10:10:28.884Z,64.63
2022-08-01T10:12:58.331Z,65.19
2022-08-01T10:15:37.294Z,65.91
2022-08-01T10:18:16.153Z,66.44
2022-08-01T10:20:57.955Z,67.30
2022-08-01T10:23:39.802Z,67.47
2022-08-01T10:26:11.601Z,67.58
2022-08-01T10:28:53.857Z,67.80
2022-08-01T10:31:30.457Z,67.61
2022-08-01T10:34:02.059Z,67.24
2022-08-01T10:36:35.948Z,66.21
2022-08-01T10:39:12.180Z,65.41
2022-08-01T10:42:11.183Z,64.55
2022-08-01T10:44:47.236Z,63.13
2022-08-01T10:47:50.787Z,62.20
2022-08-01T10:50:39.517Z,61.58
2022-08-01T10:53:31.552Z,60.97
2022-08-01T10:56:18.381Z,60.76
2022-08-01T10:58:49.568Z,62.83
2022-08-01T11:01:37.498Z,62.48
2022-08-01T11:04:42.689Z,63.70
2022-08-01T11:07:26.110Z,63.97
2022-08-01T11:10:14.863Z,64.22
2022-08-01T11:12:45.828Z,64.88
2022-08-01T11:15:49.665Z,64.61
2022-08-01T11:18:38.312Z,63.51
2022-08-01T11:21:58.128Z,64.33
2022-08-01T11:23:57.934Z,63.84
2022-08-01T11:27:16.604Z,62.37
2022-08-01T11:29:47.224Z,63.04
2022-08-01T11:32:28.791Z,62.33
2022-08-01T11:35:00.305Z,61.59
2022-08-01T11:37:37.045Z,61.31
2022-08-01T11:40:26.643Z,60.81
2022-08-01T11:43:23.915Z,59.19
2022-08-01T11:45:53.660Z,60.56
2022-08-01T11:48:27.621Z,60.89
2022-08-01T11:51:02.079Z,60.59
2022-08-01T11:53:32.124Z,60.93
2022-08-01T11:56:04.503Z,60.62
2022-08-01T11:58:34.646Z,60.38
2022-08-01T12:01:12.785Z,60.84
2022-08-01T12:03:40.773Z,61.16
2022-08-01T12:06:14.007Z,61.15
2022-08-01T12:08:44.690Z,61.10
2022-08-01T12:11:14.706Z,61.01
2022-08-01T12:13:46.209Z,60.68
2022-08-01T12:16:15.094Z,60.45
2022-08-01T12:18:46.332Z,59.68
2022-08-01T12:21:16.810Z,59.81
2022-08-01T12:24:05.009Z,59.55
2022-08-01T12:26:55.272Z,60.51
2022-08-01T12:29:41.241Z,60.17
2022-08-01T12:32:27.747Z,59.55
2022-08-01T12:35:13.248Z,60.13
2022-08-01T12:37:45.978Z,60.39
2022-08-01T12:40:18.615Z,60.54
2022-08-01T12:42:50.934Z,60.62
2022-08-01T12:45:28.256Z,60.41
2022-08-01T12:47:58.616Z,59.40
2022-08-01T12:50:45.212Z,58.21
2022-08-01T12:53:16.732Z,58.79
2022-08-01T12:55:59.463Z,58.52
2022-08-01T12:58:44.110Z,57.23
2022-08-01T13:01:15.133Z,52.93
2022-08-01T13:03:45.450Z,57.62
2022-08-01T13:06:16.575Z,57.79
2022-08-01T13:08:48.201Z,58.04
2022-08-01T13:11:19.042Z,58.61
2022-08-01T13:13:57.890Z,58.77
2022-08-01T13:16:49.059Z,58.90
2022-08-01T13:19:16.514Z,58.57
2022-08-01T13:22:12.097Z,58.09
2022-08-01T13:24:43.182Z,59.08
2022-08-01T13:27:39.589Z,59.62
2022-08-01T13:34:52.172Z,60.23
2022-08-01T13:37:37.146Z,58.93
2022-08-01T13:40:32.981Z,59.11
2022-08-01T13:47:31.009Z,58.32
2022-08-01T13:50:26.907Z,58.46
2022-08-01T13:53:35.734Z,58.38
2022-08-01T13:57:00.866Z,57.98
2022-08-01T14:00:20.420Z,58.00
2022-08-01T14:06:25.915Z,56.94
2022-08-01T14:08:59.666Z,58.53
2022-08-01T14:11:30.537Z,59.04
2022-08-01T14:14:15.450Z,56.78
2022-08-01T14:16:47.446Z,59.15
2022-08-01T14:19:38.845Z,58.82
2022-08-01T14:22:08.046Z,58.37
2022-08-01T14:24:36.299Z,58.90
2022-08-01T14:27:31.037Z,58.23
2022-08-01T14:30:04.258Z,58.29
2022-08-01T14:32:38.427Z,58.22
2022-08-01T14:35:09.827Z,58.42
2022-08-01T14:37:40.394Z,58.43
2022-08-01T14:40:11.582Z,57.97
2022-08-01T14:42:45.094Z,58.09
2022-08-01T14:45:19.124Z,58.17
2022-08-01T14:47:47.416Z,57.84
2022-08-01T14:50:28.870Z,58.07
2022-08-01T14:53:21.715Z,55.58
2022-08-01T14:55:49.691Z,58.69
2022-08-01T14:58:17.546Z,58.71
2022-08-01T15:00:59.153Z,58.81
2022-08-01T15:03:30.872Z,59.03
2022-08-01T15:06:03.350Z,58.65
2022-08-01T15:08:33.244Z,58.28
2022-08-01T15:11:02.254Z,57.80
2022-08-01T15:13:30.382Z,58.04
2022-08-01T15:15:59.942Z,58.26
2022-08-01T15:18:28.822Z,57.62
2022-08-01T15:20:59.385Z,57.48
2022-08-01T15:23:28.719Z,57.73
2022-08-01T15:26:00.166Z,57.81
2022-08-01T15:28:30.568Z,58.00
2022-08-01T15:31:01.906Z,57.98
2022-08-01T15:33:33.024Z,58.00
2022-08-01T15:36:00.913Z,58.05
2022-08-01T15:38:33.990Z,58.31
2022-08-01T15:41:01.932Z,58.35
2022-08-01T15:43:31.942Z,58.28
2022-08-01T15:46:00.153Z,57.96
2022-08-01T15:48:30.950Z,57.57
2022-08-01T15:50:59.289Z,57.39
2022-08-01T15:53:27.764Z,57.49
2022-08-01T15:55:57.244Z,57.29
2022-08-01T15:58:26.706Z,57.08
2022-08-01T16:03:46.798Z,56.85
2022-08-01T16:06:20.773Z,56.62
2022-08-01T16:08:49.116Z,56.60
2022-08-01T16:11:27.605Z,56.73
2022-08-01T16:14:00.021Z,56.31
2022-08-01T16:16:28.328Z,56.35
2022-08-01T16:19:10.189Z,57.08
2022-08-01T16:21:53.460Z,56.75
2022-08-01T16:24:21.532Z,57.12
2022-08-01T16:26:57.216Z,56.07
2022-08-01T16:29:25.824Z,56.73
2022-08-01T16:32:06.623Z,56.92
2022-08-01T16:34:49.874Z,57.14
2022-08-01T16:37:22.245Z,57.14
2022-08-01T16:39:52.524Z,56.72
2022-08-01T16:42:28.198Z,56.85
2022-08-01T16:44:56.252Z,56.62
2022-08-01T16:47:27.065Z,56.71
2022-08-01T16:49:55.096Z,56.88
2022-08-01T16:52:23.071Z,56.75
2022-08-01T16:54:57.954Z,57.01
2022-08-01T16:57:38.419Z,56.27
2022-08-01T17:00:08.611Z,56.71
2022-08-01T17:02:41.821Z,56.77
2022-08-01T17:05:12.450Z,56.81
2022-08-01T17:07:41.436Z,57.18
2022-08-01T17:10:11.725Z,57.18
2022-08-01T17:12:47.184Z,57.16
2022-08-01T17:15:15.056Z,57.23
2022-08-01T17:17:51.230Z,57.61
2022-08-01T17:20:19.193Z,57.22
2022-08-01T17:22:57.193Z,57.28
2022-08-01T17:25:27.615Z,57.27
2022-08-01T17:27:57.266Z,57.16
2022-08-01T17:30:25.417Z,56.89
2022-08-01T17:33:07.309Z,56.90
2022-08-01T17:35:43.410Z,56.87
2022-08-01T17:38:11.416Z,57.60
2022-08-01T17:40:40.747Z,57.60
2022-08-01T17:43:10.286Z,57.85
2022-08-01T17:45:50.901Z,58.22
2022-08-01T17:48:19.447Z,57.85
2022-08-01T17:50:51.747Z,58.01
2022-08-01T17:53:20.835Z,57.91
2022-08-01T17:55:55.893Z,58.11
2022-08-01T17:58:51.458Z,58.04
2022-08-01T18:01:29.879Z,58.13
2022-08-01T18:03:58.995Z,58.41
2022-08-01T18:06:27.358Z,58.20
2022-08-01T18:08:59.645Z,58.31
2022-08-01T18:11:37.258Z,58.37
2022-08-01T18:14:07.155Z,58.55
2022-08-01T18:16:35.282Z,58.75
2022-08-01T18:19:09.291Z,58.61
2022-08-01T18:21:42.425Z,57.60
2022-08-01T18:24:10.855Z,58.50
2022-08-01T18:26:44.762Z,58.71
2022-08-01T18:29:15.905Z,57.82
2022-08-01T18:31:55.962Z,58.63
2022-08-01T18:34:27.414Z,58.78
2022-08-01T18:36:56.543Z,58.70
2022-08-01T18:39:35.071Z,58.75
2022-08-01T18:42:32.433Z,58.41
2022-08-01T18:45:04.894Z,58.80
2022-08-01T18:47:32.979Z,58.97
2022-08-01T18:50:03.058Z,59.01
2022-08-01T18:52:32.030Z,59.10
2022-08-01T18:55:00.563Z,59.23
2022-08-01T18:57:28.440Z,59.19
2022-08-01T18:59:56.556Z,59.30
2022-08-01T19:02:25.780Z,59.40
2022-08-01T19:04:56.064Z,59.32
2022-08-01T19:07:39.383Z,59.34
2022-08-01T19:10:12.535Z,59.53
2022-08-01T19:12:40.598Z,59.71
2022-08-01T19:15:09.681Z,59.64
2022-08-01T19:17:45.283Z,59.83
2022-08-01T19:20:13.374Z,59.51
2022-08-01T19:22:50.325Z,59.68
2022-08-01T19:25:18.428Z,59.83
2022-08-01T19:27:48.953Z,59.98
2022-08-01T19:30:18.498Z,60.01
2022-08-01T19:33:00.493Z,59.99
2022-08-01T19:35:30.145Z,60.21
2022-08-01T19:38:02.360Z,60.06
2022-08-01T19:40:32.560Z,60.10
2022-08-01T19:43:04.389Z,60.25
2022-08-01T19:45:32.642Z,60.24
2022-08-01T19:48:02.379Z,60.34
2022-08-01T19:50:33.983Z,60.45
2022-08-01T19:53:05.582Z,60.67
2022-08-01T19:55:39.627Z,60.58
2022-08-01T19:58:26.279Z,60.57
2022-08-01T20:00:55.618Z,60.51
2022-08-01T20:03:25.211Z,60.67
2022-08-01T20:05:53.304Z,60.77
2022-08-01T20:08:22.530Z,60.63
2022-08-01T20:10:51.846Z,60.80
2022-08-01T20:13:20.811Z,60.85
2022-08-01T20:15:49.224Z,60.96
2022-08-01T20:18:17.379Z,61.13
2022-08-01T20:20:48.148Z,61.08
2022-08-01T20:23:18.716Z,61.18
2022-08-01T20:25:49.490Z,61.09
2022-08-01T20:28:22.494Z,61.28
2022-08-01T20:30:56.178Z,61.34
2022-08-01T20:33:24.730Z,61.27
2022-08-01T20:35:56.203Z,61.41
2022-08-01T20:38:29.499Z,61.69
2022-08-01T20:40:59.088Z,61.35
2022-08-01T20:43:27.991Z,61.07
2022-08-01T20:45:57.746Z,61.73
2022-08-01T20:48:28.029Z,61.50
2022-08-01T20:51:19.805Z,61.73
2022-08-01T20:53:52.518Z,61.53
2022-08-01T20:56:39.378Z,61.46
2022-08-01T20:59:39.785Z,61.78
2022-08-01T21:02:08.605Z,61.95
2022-08-01T21:04:49.278Z,61.70
2022-08-01T21:07:25.471Z,61.74
2022-08-01T21:10:00.661Z,61.65
2022-08-01T21:12:36.245Z,61.35
2022-08-01T21:15:05.399Z,61.74
2022-08-01T21:17:46.738Z,62.28
2022-08-01T21:20:16.121Z,62.32
2022-08-01T21:23:00.508Z,62.20
2022-08-01T21:25:31.814Z,63.00
2022-08-01T21:28:02.314Z,62.25
2022-08-01T21:30:31.687Z,61.80
2022-08-01T21:32:59.869Z,61.88
2022-08-01T21:35:28.253Z,61.71
2022-08-01T21:38:00.476Z,62.09
2022-08-01T21:40:28.619Z,62.38
2022-08-01T21:42:56.720Z,62.31
2022-08-01T21:45:27.241Z,62.71
2022-08-01T21:47:56.820Z,62.84
2022-08-01T21:50:25.236Z,63.04
2022-08-01T21:53:12.046Z,63.09
2022-08-01T21:55:52.433Z,63.26
2022-08-01T21:58:33.913Z,62.66
2022-08-01T22:01:11.330Z,63.15
2022-08-01T22:03:45.788Z,63.33
2022-08-01T22:06:15.256Z,62.82
2022-08-01T22:08:51.178Z,62.96
2022-08-01T22:11:24.468Z,62.64
2022-08-01T22:13:55.681Z,63.12
2022-08-01T22:16:26.055Z,63.37
2022-08-01T22:18:55.007Z,63.60
2022-08-01T22:21:32.536Z,63.30
2022-08-01T22:24:05.363Z,63.67
2022-08-01T22:26:38.267Z,63.50
2022-08-01T22:29:11.501Z,63.33
2022-08-01T22:31:47.884Z,63.44
2022-08-01T22:34:28.295Z,63.41
2022-08-01T22:36:59.406Z,63.64
2022-08-01T22:39:33.890Z,63.71
2022-08-01T22:42:04.522Z,63.77
2022-08-01T22:44:50.308Z,63.44
2022-08-01T22:47:41.011Z,63.88
2022-08-01T22:50:18.235Z,64.06
2022-08-01T22:53:16.863Z,63.84
2022-08-01T22:55:59.532Z,63.75
2022-08-01T22:58:31.725Z,63.70
2022-08-01T23:01:20.953Z,63.56
2022-08-01T23:03:56.990Z,63.79
2022-08-01T23:06:31.533Z,63.24
2022-08-01T23:09:01.504Z,63.66
2022-08-01T23:11:31.048Z,63.48
2022-08-01T23:14:01.162Z,63.57
2022-08-01T23:16:29.937Z,63.37
2022-08-01T23:19:00.319Z,63.33
2022-08-01T23:21:39.994Z,63.00
2022-08-01T23:24:11.436Z,62.68
2022-08-01T23:26:41.592Z,62.54
2022-08-01T23:29:11.112Z,62.74
2022-08-01T23:32:02.849Z,62.44
2022-08-01T23:34:26.946Z,62.78
2022-08-01T23:36:58.076Z,62.54
2022-08-01T23:39:26.120Z,62.64
2022-08-01T23:42:07.202Z,63.19
2022-08-01T23:44:35.899Z,63.05
2022-08-01T23:47:08.554Z,62.84
2022-08-01T23:49:53.477Z,63.09
2022-08-01T23:52:31.000Z,63.25
2022-08-01T23:55:14.769Z,62.79
2022-08-01T23:57:46.188Z,63.13
